sensor_id;sensor_type;location;lat;lon;timestamp;P1;durP1;ratioP1;P2;durP2;ratioP2
297;SDS011;133;49.626;9.680;2024-01-25T00:02:16;16.47;;;5.30;;
297;SDS011;133;49.626;9.680;2024-01-25T00:04:41;18.00;;;5.00;;
297;SDS011;133;49.626;9.680;2024-01-25T00:07:11;14.17;;;5.27;;
297;SDS011;133;49.626;9.680;2024-01-25T00:09:36;18.97;;;4.80;;
297;SDS011;133;49.626;9.680;2024-01-25T00:12:02;13.27;;;4.03;;
297;SDS011;133;49.626;9.680;2024-01-25T00:14:28;19.87;;;5.23;;
297;SDS011;133;49.626;9.680;2024-01-25T00:16:54;15.00;;;4.40;;
297;SDS011;133;49.626;9.680;2024-01-25T00:19:19;20.50;;;5.03;;
297;SDS011;133;49.626;9.680;2024-01-25T00:21:45;17.33;;;4.47;;
297;SDS011;133;49.626;9.680;2024-01-25T00:24:11;24.60;;;5.07;;
297;SDS011;133;49.626;9.680;2024-01-25T00:26:37;24.47;;;5.70;;
297;SDS011;133;49.626;9.680;2024-01-25T00:29:03;18.53;;;4.20;;
297;SDS011;133;49.626;9.680;2024-01-25T00:31:29;27.30;;;6.00;;
297;SDS011;133;49.626;9.680;2024-01-25T00:33:57;18.20;;;4.83;;
297;SDS011;133;49.626;9.680;2024-01-25T00:36:23;10.70;;;4.47;;
297;SDS011;133;49.626;9.680;2024-01-25T00:38:49;21.23;;;5.13;;
297;SDS011;133;49.626;9.680;2024-01-25T00:41:17;14.17;;;4.73;;
297;SDS011;133;49.626;9.680;2024-01-25T00:43:44;17.83;;;4.53;;
297;SDS011;133;49.626;9.680;2024-01-25T00:46:10;14.30;;;4.50;;
297;SDS011;133;49.626;9.680;2024-01-25T00:48:38;21.80;;;4.50;;
297;SDS011;133;49.626;9.680;2024-01-25T00:51:08;24.07;;;5.63;;
297;SDS011;133;49.626;9.680;2024-01-25T00:53:38;15.80;;;5.47;;
297;SDS011;133;49.626;9.680;2024-01-25T00:56:04;16.77;;;4.90;;
297;SDS011;133;49.626;9.680;2024-01-25T00:58:30;18.90;;;4.43;;
297;SDS011;133;49.626;9.680;2024-01-25T01:00:56;23.33;;;5.37;;
297;SDS011;133;49.626;9.680;2024-01-25T01:03:22;15.90;;;5.27;;
297;SDS011;133;49.626;9.680;2024-01-25T01:05:48;18.47;;;5.10;;
297;SDS011;133;49.626;9.680;2024-01-25T01:08:14;16.40;;;4.73;;
297;SDS011;133;49.626;9.680;2024-01-25T01:10:39;16.47;;;4.40;;
297;SDS011;133;49.626;9.680;2024-01-25T01:13:05;18.73;;;5.23;;
297;SDS011;133;49.626;9.680;2024-01-25T01:15:31;13.40;;;4.67;;
297;SDS011;133;49.626;9.680;2024-01-25T01:17:56;23.80;;;5.30;;
297;SDS011;133;49.626;9.680;2024-01-25T01:20:22;22.33;;;4.80;;
297;SDS011;133;49.626;9.680;2024-01-25T01:22:48;17.50;;;4.30;;
297;SDS011;133;49.626;9.680;2024-01-25T01:25:14;14.40;;;4.53;;
297;SDS011;133;49.626;9.680;2024-01-25T01:27:39;17.80;;;4.50;;
297;SDS011;133;49.626;9.680;2024-01-25T01:30:05;16.90;;;4.70;;
297;SDS011;133;49.626;9.680;2024-01-25T01:32:33;20.37;;;5.10;;
297;SDS011;133;49.626;9.680;2024-01-25T01:34:59;16.03;;;4.63;;
297;SDS011;133;49.626;9.680;2024-01-25T01:37:24;12.60;;;4.27;;
297;SDS011;133;49.626;9.680;2024-01-25T01:39:50;18.90;;;5.20;;
297;SDS011;133;49.626;9.680;2024-01-25T01:42:17;20.67;;;5.33;;
297;SDS011;133;49.626;9.680;2024-01-25T01:44:43;16.43;;;5.47;;
297;SDS011;133;49.626;9.680;2024-01-25T01:47:08;19.80;;;5.47;;
297;SDS011;133;49.626;9.680;2024-01-25T01:49:34;15.40;;;4.63;;
297;SDS011;133;49.626;9.680;2024-01-25T01:52:01;20.73;;;4.20;;
297;SDS011;133;49.626;9.680;2024-01-25T01:54:27;23.00;;;5.10;;
297;SDS011;133;49.626;9.680;2024-01-25T01:56:52;17.13;;;5.10;;
297;SDS011;133;49.626;9.680;2024-01-25T01:59:19;16.00;;;4.30;;
297;SDS011;133;49.626;9.680;2024-01-25T02:01:45;16.63;;;3.90;;
297;SDS011;133;49.626;9.680;2024-01-25T02:04:11;13.80;;;4.57;;
297;SDS011;133;49.626;9.680;2024-01-25T02:06:37;17.57;;;6.00;;
297;SDS011;133;49.626;9.680;2024-01-25T02:09:02;10.20;;;4.27;;
297;SDS011;133;49.626;9.680;2024-01-25T02:11:30;14.17;;;4.30;;
297;SDS011;133;49.626;9.680;2024-01-25T02:13:55;21.53;;;4.60;;
297;SDS011;133;49.626;9.680;2024-01-25T02:16:21;12.90;;;3.67;;
297;SDS011;133;49.626;9.680;2024-01-25T02:18:47;18.30;;;4.60;;
297;SDS011;133;49.626;9.680;2024-01-25T02:21:13;15.60;;;4.13;;
297;SDS011;133;49.626;9.680;2024-01-25T02:23:39;12.20;;;4.30;;
297;SDS011;133;49.626;9.680;2024-01-25T02:26:04;17.63;;;4.63;;
297;SDS011;133;49.626;9.680;2024-01-25T02:28:30;15.77;;;4.53;;
297;SDS011;133;49.626;9.680;2024-01-25T02:30:56;14.70;;;4.37;;
297;SDS011;133;49.626;9.680;2024-01-25T02:33:22;16.43;;;4.00;;
297;SDS011;133;49.626;9.680;2024-01-25T02:35:47;15.00;;;4.37;;
297;SDS011;133;49.626;9.680;2024-01-25T02:38:13;11.17;;;3.80;;
297;SDS011;133;49.626;9.680;2024-01-25T02:40:39;21.13;;;4.60;;
297;SDS011;133;49.626;9.680;2024-01-25T02:43:05;19.87;;;4.40;;
297;SDS011;133;49.626;9.680;2024-01-25T02:45:30;15.07;;;4.40;;
297;SDS011;133;49.626;9.680;2024-01-25T02:47:56;20.43;;;4.70;;
297;SDS011;133;49.626;9.680;2024-01-25T02:50:21;13.27;;;4.13;;
297;SDS011;133;49.626;9.680;2024-01-25T02:52:47;20.70;;;4.80;;
297;SDS011;133;49.626;9.680;2024-01-25T02:55:13;12.63;;;4.40;;
297;SDS011;133;49.626;9.680;2024-01-25T02:57:38;13.00;;;4.87;;
297;SDS011;133;49.626;9.680;2024-01-25T03:00:04;17.37;;;5.00;;
297;SDS011;133;49.626;9.680;2024-01-25T03:02:30;16.70;;;4.47;;
297;SDS011;133;49.626;9.680;2024-01-25T03:04:56;15.67;;;4.80;;
297;SDS011;133;49.626;9.680;2024-01-25T03:07:22;21.30;;;5.00;;
297;SDS011;133;49.626;9.680;2024-01-25T03:09:47;17.77;;;5.30;;
297;SDS011;133;49.626;9.680;2024-01-25T03:12:13;13.67;;;4.37;;
297;SDS011;133;49.626;9.680;2024-01-25T03:14:39;16.23;;;4.47;;
297;SDS011;133;49.626;9.680;2024-01-25T03:17:04;27.27;;;4.80;;
297;SDS011;133;49.626;9.680;2024-01-25T03:19:30;19.90;;;5.80;;
297;SDS011;133;49.626;9.680;2024-01-25T03:21:56;22.73;;;5.10;;
297;SDS011;133;49.626;9.680;2024-01-25T03:24:21;15.70;;;4.97;;
297;SDS011;133;49.626;9.680;2024-01-25T03:26:47;18.10;;;5.10;;
297;SDS011;133;49.626;9.680;2024-01-25T03:29:13;16.87;;;4.53;;
297;SDS011;133;49.626;9.680;2024-01-25T03:31:39;23.03;;;4.50;;
297;SDS011;133;49.626;9.680;2024-01-25T03:34:05;18.60;;;5.20;;
297;SDS011;133;49.626;9.680;2024-01-25T03:36:30;16.23;;;4.00;;
297;SDS011;133;49.626;9.680;2024-01-25T03:38:56;24.30;;;5.40;;
297;SDS011;133;49.626;9.680;2024-01-25T03:41:22;16.03;;;4.33;;
297;SDS011;133;49.626;9.680;2024-01-25T03:43:48;21.60;;;4.90;;
297;SDS011;133;49.626;9.680;2024-01-25T03:46:14;21.50;;;4.47;;
297;SDS011;133;49.626;9.680;2024-01-25T03:48:40;28.30;;;5.37;;
297;SDS011;133;49.626;9.680;2024-01-25T03:51:05;18.17;;;4.90;;
297;SDS011;133;49.626;9.680;2024-01-25T03:53:31;18.33;;;5.30;;
297;SDS011;133;49.626;9.680;2024-01-25T03:55:57;22.10;;;4.80;;
297;SDS011;133;49.626;9.680;2024-01-25T03:58:22;17.10;;;4.80;;
297;SDS011;133;49.626;9.680;2024-01-25T04:00:48;26.87;;;4.90;;
297;SDS011;133;49.626;9.680;2024-01-25T04:03:14;15.43;;;4.93;;
297;SDS011;133;49.626;9.680;2024-01-25T04:05:39;13.23;;;4.40;;
297;SDS011;133;49.626;9.680;2024-01-25T04:08:05;16.80;;;4.90;;
297;SDS011;133;49.626;9.680;2024-01-25T04:10:31;15.97;;;3.90;;
297;SDS011;133;49.626;9.680;2024-01-25T04:12:57;15.13;;;4.20;;
297;SDS011;133;49.626;9.680;2024-01-25T04:15:25;19.17;;;5.60;;
297;SDS011;133;49.626;9.680;2024-01-25T04:17:50;18.33;;;5.30;;
297;SDS011;133;49.626;9.680;2024-01-25T04:20:18;17.43;;;4.77;;
297;SDS011;133;49.626;9.680;2024-01-25T04:22:44;16.27;;;4.50;;
297;SDS011;133;49.626;9.680;2024-01-25T04:25:10;17.23;;;4.47;;
297;SDS011;133;49.626;9.680;2024-01-25T04:27:37;21.53;;;4.77;;
297;SDS011;133;49.626;9.680;2024-01-25T04:30:03;21.37;;;4.60;;
297;SDS011;133;49.626;9.680;2024-01-25T04:32:30;26.70;;;5.30;;
297;SDS011;133;49.626;9.680;2024-01-25T04:34:55;20.17;;;5.00;;
297;SDS011;133;49.626;9.680;2024-01-25T04:37:21;16.77;;;4.27;;
297;SDS011;133;49.626;9.680;2024-01-25T04:39:47;18.60;;;5.13;;
297;SDS011;133;49.626;9.680;2024-01-25T04:42:13;20.33;;;4.87;;
297;SDS011;133;49.626;9.680;2024-01-25T04:44:39;23.53;;;4.60;;
297;SDS011;133;49.626;9.680;2024-01-25T04:47:04;21.63;;;4.43;;
297;SDS011;133;49.626;9.680;2024-01-25T04:49:30;14.93;;;4.77;;
297;SDS011;133;49.626;9.680;2024-01-25T04:51:56;22.77;;;4.90;;
297;SDS011;133;49.626;9.680;2024-01-25T04:54:22;26.93;;;5.13;;
297;SDS011;133;49.626;9.680;2024-01-25T04:56:47;21.10;;;4.87;;
297;SDS011;133;49.626;9.680;2024-01-25T04:59:13;19.50;;;5.30;;
297;SDS011;133;49.626;9.680;2024-01-25T05:01:38;21.90;;;5.50;;
297;SDS011;133;49.626;9.680;2024-01-25T05:04:04;17.17;;;5.00;;
297;SDS011;133;49.626;9.680;2024-01-25T05:06:30;16.70;;;4.37;;
297;SDS011;133;49.626;9.680;2024-01-25T05:08:56;24.30;;;5.33;;
297;SDS011;133;49.626;9.680;2024-01-25T05:11:21;13.40;;;4.47;;
297;SDS011;133;49.626;9.680;2024-01-25T05:13:47;23.33;;;5.77;;
297;SDS011;133;49.626;9.680;2024-01-25T05:16:12;21.33;;;5.10;;
297;SDS011;133;49.626;9.680;2024-01-25T05:18:38;20.00;;;5.70;;
297;SDS011;133;49.626;9.680;2024-01-25T05:21:04;21.33;;;5.50;;
297;SDS011;133;49.626;9.680;2024-01-25T05:23:29;22.27;;;5.50;;
297;SDS011;133;49.626;9.680;2024-01-25T05:25:55;25.90;;;5.00;;
297;SDS011;133;49.626;9.680;2024-01-25T05:28:21;21.90;;;5.17;;
297;SDS011;133;49.626;9.680;2024-01-25T05:30:46;17.43;;;5.37;;
297;SDS011;133;49.626;9.680;2024-01-25T05:33:12;19.23;;;5.07;;
297;SDS011;133;49.626;9.680;2024-01-25T05:35:38;18.20;;;4.40;;
297;SDS011;133;49.626;9.680;2024-01-25T05:38:04;17.83;;;4.67;;
297;SDS011;133;49.626;9.680;2024-01-25T05:40:30;15.03;;;4.40;;
297;SDS011;133;49.626;9.680;2024-01-25T05:42:55;21.20;;;5.33;;
297;SDS011;133;49.626;9.680;2024-01-25T05:45:21;21.50;;;4.40;;
297;SDS011;133;49.626;9.680;2024-01-25T05:47:48;15.70;;;4.77;;
297;SDS011;133;49.626;9.680;2024-01-25T05:50:14;15.60;;;5.23;;
297;SDS011;133;49.626;9.680;2024-01-25T05:52:39;17.20;;;5.00;;
297;SDS011;133;49.626;9.680;2024-01-25T05:55:05;19.97;;;5.50;;
297;SDS011;133;49.626;9.680;2024-01-25T05:57:31;19.20;;;5.53;;
297;SDS011;133;49.626;9.680;2024-01-25T05:59:59;32.67;;;7.00;;
297;SDS011;133;49.626;9.680;2024-01-25T06:02:25;18.03;;;4.67;;
297;SDS011;133;49.626;9.680;2024-01-25T06:04:50;13.90;;;5.27;;
297;SDS011;133;49.626;9.680;2024-01-25T06:07:16;22.40;;;6.47;;
297;SDS011;133;49.626;9.680;2024-01-25T06:09:42;22.80;;;6.40;;
297;SDS011;133;49.626;9.680;2024-01-25T06:12:07;19.23;;;4.90;;
297;SDS011;133;49.626;9.680;2024-01-25T06:14:33;26.90;;;5.67;;
297;SDS011;133;49.626;9.680;2024-01-25T06:16:59;19.30;;;5.33;;
297;SDS011;133;49.626;9.680;2024-01-25T06:19:24;23.63;;;5.43;;
297;SDS011;133;49.626;9.680;2024-01-25T06:21:50;22.60;;;6.43;;
297;SDS011;133;49.626;9.680;2024-01-25T06:24:15;16.17;;;4.53;;
297;SDS011;133;49.626;9.680;2024-01-25T06:26:41;24.40;;;5.93;;
297;SDS011;133;49.626;9.680;2024-01-25T06:29:07;19.30;;;5.13;;
297;SDS011;133;49.626;9.680;2024-01-25T06:31:32;13.90;;;5.13;;
297;SDS011;133;49.626;9.680;2024-01-25T06:34:04;20.40;;;5.57;;
297;SDS011;133;49.626;9.680;2024-01-25T06:36:30;18.30;;;6.10;;
297;SDS011;133;49.626;9.680;2024-01-25T06:38:55;21.70;;;5.13;;
297;SDS011;133;49.626;9.680;2024-01-25T06:41:21;17.97;;;7.10;;
297;SDS011;133;49.626;9.680;2024-01-25T06:43:46;20.03;;;7.10;;
297;SDS011;133;49.626;9.680;2024-01-25T06:46:12;16.97;;;5.40;;
297;SDS011;133;49.626;9.680;2024-01-25T06:48:38;27.20;;;5.90;;
297;SDS011;133;49.626;9.680;2024-01-25T06:51:03;17.60;;;5.47;;
297;SDS011;133;49.626;9.680;2024-01-25T06:53:29;21.83;;;5.40;;
297;SDS011;133;49.626;9.680;2024-01-25T06:55:55;21.40;;;5.33;;
297;SDS011;133;49.626;9.680;2024-01-25T06:58:20;20.10;;;5.10;;
297;SDS011;133;49.626;9.680;2024-01-25T07:00:46;28.30;;;5.53;;
297;SDS011;133;49.626;9.680;2024-01-25T07:03:12;15.97;;;5.53;;
297;SDS011;133;49.626;9.680;2024-01-25T07:05:38;23.90;;;6.67;;
297;SDS011;133;49.626;9.680;2024-01-25T07:08:04;20.70;;;6.00;;
297;SDS011;133;49.626;9.680;2024-01-25T07:10:30;19.60;;;6.13;;
297;SDS011;133;49.626;9.680;2024-01-25T07:12:56;18.37;;;5.53;;
297;SDS011;133;49.626;9.680;2024-01-25T07:15:21;23.57;;;6.97;;
297;SDS011;133;49.626;9.680;2024-01-25T07:17:47;20.40;;;5.27;;
297;SDS011;133;49.626;9.680;2024-01-25T07:20:12;21.90;;;6.30;;
297;SDS011;133;49.626;9.680;2024-01-25T07:22:39;21.07;;;5.83;;
297;SDS011;133;49.626;9.680;2024-01-25T07:25:05;16.80;;;6.37;;
297;SDS011;133;49.626;9.680;2024-01-25T07:27:31;24.97;;;7.30;;
297;SDS011;133;49.626;9.680;2024-01-25T07:29:57;28.37;;;7.13;;
297;SDS011;133;49.626;9.680;2024-01-25T07:32:23;19.83;;;5.43;;
297;SDS011;133;49.626;9.680;2024-01-25T07:34:52;20.00;;;5.77;;
297;SDS011;133;49.626;9.680;2024-01-25T07:37:18;27.03;;;6.80;;
297;SDS011;133;49.626;9.680;2024-01-25T07:39:44;17.73;;;5.37;;
297;SDS011;133;49.626;9.680;2024-01-25T07:42:10;23.37;;;6.43;;
297;SDS011;133;49.626;9.680;2024-01-25T07:44:36;25.67;;;6.73;;
297;SDS011;133;49.626;9.680;2024-01-25T07:47:02;15.03;;;5.90;;
297;SDS011;133;49.626;9.680;2024-01-25T07:49:28;19.53;;;6.47;;
297;SDS011;133;49.626;9.680;2024-01-25T07:51:54;24.13;;;6.70;;
297;SDS011;133;49.626;9.680;2024-01-25T07:54:21;17.30;;;6.00;;
297;SDS011;133;49.626;9.680;2024-01-25T07:56:47;19.33;;;6.20;;
297;SDS011;133;49.626;9.680;2024-01-25T07:59:13;19.40;;;6.40;;
297;SDS011;133;49.626;9.680;2024-01-25T08:01:38;16.07;;;5.50;;
297;SDS011;133;49.626;9.680;2024-01-25T08:04:04;16.57;;;5.60;;
297;SDS011;133;49.626;9.680;2024-01-25T08:06:29;18.57;;;6.07;;
297;SDS011;133;49.626;9.680;2024-01-25T08:08:55;17.67;;;5.70;;
297;SDS011;133;49.626;9.680;2024-01-25T08:11:21;33.10;;;8.67;;
297;SDS011;133;49.626;9.680;2024-01-25T08:13:46;17.40;;;5.43;;
297;SDS011;133;49.626;9.680;2024-01-25T08:16:15;16.30;;;5.33;;
297;SDS011;133;49.626;9.680;2024-01-25T08:18:45;19.03;;;5.50;;
297;SDS011;133;49.626;9.680;2024-01-25T08:21:11;15.33;;;4.90;;
297;SDS011;133;49.626;9.680;2024-01-25T08:23:37;15.77;;;4.93;;
297;SDS011;133;49.626;9.680;2024-01-25T08:26:04;24.63;;;5.33;;
297;SDS011;133;49.626;9.680;2024-01-25T08:28:30;18.30;;;5.90;;
297;SDS011;133;49.626;9.680;2024-01-25T08:30:56;18.47;;;5.17;;
297;SDS011;133;49.626;9.680;2024-01-25T08:33:22;16.23;;;4.83;;
297;SDS011;133;49.626;9.680;2024-01-25T08:35:50;23.67;;;5.97;;
297;SDS011;133;49.626;9.680;2024-01-25T08:38:16;19.33;;;6.20;;
297;SDS011;133;49.626;9.680;2024-01-25T08:40:41;22.17;;;5.50;;
297;SDS011;133;49.626;9.680;2024-01-25T08:43:07;23.57;;;6.87;;
297;SDS011;133;49.626;9.680;2024-01-25T08:45:33;22.33;;;7.60;;
297;SDS011;133;49.626;9.680;2024-01-25T08:47:58;20.60;;;6.80;;
297;SDS011;133;49.626;9.680;2024-01-25T08:50:25;24.70;;;7.10;;
297;SDS011;133;49.626;9.680;2024-01-25T08:52:50;28.83;;;7.87;;
297;SDS011;133;49.626;9.680;2024-01-25T08:55:16;17.53;;;7.20;;
297;SDS011;133;49.626;9.680;2024-01-25T08:57:42;21.07;;;6.87;;
297;SDS011;133;49.626;9.680;2024-01-25T09:00:07;20.67;;;6.10;;
297;SDS011;133;49.626;9.680;2024-01-25T09:02:35;17.33;;;5.87;;
297;SDS011;133;49.626;9.680;2024-01-25T09:05:01;21.63;;;6.10;;
297;SDS011;133;49.626;9.680;2024-01-25T09:07:28;26.40;;;6.10;;
297;SDS011;133;49.626;9.680;2024-01-25T09:09:54;19.30;;;6.67;;
297;SDS011;133;49.626;9.680;2024-01-25T09:12:20;22.93;;;5.63;;
297;SDS011;133;49.626;9.680;2024-01-25T09:14:45;20.27;;;5.57;;
297;SDS011;133;49.626;9.680;2024-01-25T09:17:11;26.53;;;5.83;;
297;SDS011;133;49.626;9.680;2024-01-25T09:19:38;19.87;;;5.60;;
297;SDS011;133;49.626;9.680;2024-01-25T09:22:04;16.63;;;6.00;;
297;SDS011;133;49.626;9.680;2024-01-25T09:24:32;14.57;;;5.07;;
297;SDS011;133;49.626;9.680;2024-01-25T09:27:01;18.43;;;5.57;;
297;SDS011;133;49.626;9.680;2024-01-25T09:29:27;28.70;;;5.80;;
297;SDS011;133;49.626;9.680;2024-01-25T09:31:53;27.60;;;6.70;;
297;SDS011;133;49.626;9.680;2024-01-25T09:34:19;23.70;;;6.83;;
297;SDS011;133;49.626;9.680;2024-01-25T09:36:47;25.90;;;5.70;;
297;SDS011;133;49.626;9.680;2024-01-25T09:39:12;21.63;;;5.87;;
297;SDS011;133;49.626;9.680;2024-01-25T09:41:39;16.43;;;4.90;;
297;SDS011;133;49.626;9.680;2024-01-25T09:44:06;18.40;;;5.40;;
297;SDS011;133;49.626;9.680;2024-01-25T09:46:34;16.13;;;5.07;;
297;SDS011;133;49.626;9.680;2024-01-25T09:49:00;22.07;;;6.20;;
297;SDS011;133;49.626;9.680;2024-01-25T09:51:26;21.33;;;6.00;;
297;SDS011;133;49.626;9.680;2024-01-25T09:53:59;17.90;;;6.00;;
297;SDS011;133;49.626;9.680;2024-01-25T09:56:26;22.40;;;5.80;;
297;SDS011;133;49.626;9.680;2024-01-25T09:58:56;23.23;;;6.07;;
297;SDS011;133;49.626;9.680;2024-01-25T10:01:22;19.40;;;5.40;;
297;SDS011;133;49.626;9.680;2024-01-25T10:03:47;18.33;;;5.83;;
297;SDS011;133;49.626;9.680;2024-01-25T10:06:14;20.33;;;5.40;;
297;SDS011;133;49.626;9.680;2024-01-25T10:08:41;28.67;;;5.53;;
297;SDS011;133;49.626;9.680;2024-01-25T10:11:07;22.67;;;6.17;;
297;SDS011;133;49.626;9.680;2024-01-25T10:13:39;22.40;;;7.27;;
297;SDS011;133;49.626;9.680;2024-01-25T10:16:06;18.43;;;6.10;;
297;SDS011;133;49.626;9.680;2024-01-25T10:18:35;29.10;;;6.90;;
297;SDS011;133;49.626;9.680;2024-01-25T10:21:01;22.50;;;6.20;;
297;SDS011;133;49.626;9.680;2024-01-25T10:23:28;19.87;;;5.57;;
297;SDS011;133;49.626;9.680;2024-01-25T10:25:53;18.53;;;6.53;;
297;SDS011;133;49.626;9.680;2024-01-25T10:28:21;24.00;;;5.93;;
297;SDS011;133;49.626;9.680;2024-01-25T10:30:50;16.13;;;5.27;;
297;SDS011;133;49.626;9.680;2024-01-25T10:33:16;20.97;;;6.60;;
297;SDS011;133;49.626;9.680;2024-01-25T10:35:42;20.60;;;6.00;;
297;SDS011;133;49.626;9.680;2024-01-25T10:38:14;15.07;;;5.23;;
297;SDS011;133;49.626;9.680;2024-01-25T10:40:43;17.23;;;5.63;;
297;SDS011;133;49.626;9.680;2024-01-25T10:43:11;17.67;;;5.73;;
297;SDS011;133;49.626;9.680;2024-01-25T10:45:36;17.47;;;6.07;;
297;SDS011;133;49.626;9.680;2024-01-25T10:48:02;14.60;;;5.63;;
297;SDS011;133;49.626;9.680;2024-01-25T10:50:29;22.37;;;6.80;;
297;SDS011;133;49.626;9.680;2024-01-25T10:52:55;17.90;;;5.70;;
297;SDS011;133;49.626;9.680;2024-01-25T10:55:22;22.63;;;5.10;;
297;SDS011;133;49.626;9.680;2024-01-25T10:57:48;14.47;;;4.80;;
297;SDS011;133;49.626;9.680;2024-01-25T11:00:16;18.67;;;5.13;;
297;SDS011;133;49.626;9.680;2024-01-25T11:02:43;18.67;;;5.73;;
297;SDS011;133;49.626;9.680;2024-01-25T11:05:14;21.10;;;5.50;;
297;SDS011;133;49.626;9.680;2024-01-25T11:07:45;21.40;;;5.90;;
297;SDS011;133;49.626;9.680;2024-01-25T11:10:20;14.70;;;5.27;;
297;SDS011;133;49.626;9.680;2024-01-25T11:15:20;16.23;;;5.67;;
297;SDS011;133;49.626;9.680;2024-01-25T11:17:50;22.33;;;5.93;;
297;SDS011;133;49.626;9.680;2024-01-25T11:20:19;20.23;;;5.67;;
297;SDS011;133;49.626;9.680;2024-01-25T11:22:46;19.00;;;5.10;;
297;SDS011;133;49.626;9.680;2024-01-25T11:25:13;15.13;;;5.33;;
297;SDS011;133;49.626;9.680;2024-01-25T11:27:42;19.97;;;6.13;;
297;SDS011;133;49.626;9.680;2024-01-25T11:30:08;19.77;;;4.70;;
297;SDS011;133;49.626;9.680;2024-01-25T11:32:34;22.87;;;6.33;;
297;SDS011;133;49.626;9.680;2024-01-25T11:35:00;21.90;;;6.33;;
297;SDS011;133;49.626;9.680;2024-01-25T11:37:26;13.00;;;4.87;;
297;SDS011;133;49.626;9.680;2024-01-25T11:39:51;18.93;;;5.53;;
297;SDS011;133;49.626;9.680;2024-01-25T11:42:17;18.83;;;5.23;;
297;SDS011;133;49.626;9.680;2024-01-25T11:44:43;23.57;;;6.43;;
297;SDS011;133;49.626;9.680;2024-01-25T11:47:09;13.50;;;5.90;;
297;SDS011;133;49.626;9.680;2024-01-25T11:49:35;16.77;;;6.00;;
297;SDS011;133;49.626;9.680;2024-01-25T11:52:01;17.40;;;5.00;;
297;SDS011;133;49.626;9.680;2024-01-25T11:54:29;19.63;;;6.37;;
297;SDS011;133;49.626;9.680;2024-01-25T11:56:54;19.37;;;5.27;;
297;SDS011;133;49.626;9.680;2024-01-25T11:59:20;11.00;;;5.07;;
297;SDS011;133;49.626;9.680;2024-01-25T12:01:46;23.00;;;5.20;;
297;SDS011;133;49.626;9.680;2024-01-25T12:04:12;17.10;;;5.67;;
297;SDS011;133;49.626;9.680;2024-01-25T12:06:37;23.40;;;6.80;;
297;SDS011;133;49.626;9.680;2024-01-25T12:09:09;16.90;;;5.50;;
297;SDS011;133;49.626;9.680;2024-01-25T12:11:35;14.00;;;4.90;;
297;SDS011;133;49.626;9.680;2024-01-25T12:14:01;29.30;;;5.97;;
297;SDS011;133;49.626;9.680;2024-01-25T12:16:27;17.27;;;6.03;;
297;SDS011;133;49.626;9.680;2024-01-25T12:18:52;28.17;;;5.60;;
297;SDS011;133;49.626;9.680;2024-01-25T12:21:19;15.83;;;5.50;;
297;SDS011;133;49.626;9.680;2024-01-25T12:23:44;15.63;;;5.23;;
297;SDS011;133;49.626;9.680;2024-01-25T12:26:10;20.20;;;5.33;;
297;SDS011;133;49.626;9.680;2024-01-25T12:28:36;14.60;;;4.60;;
297;SDS011;133;49.626;9.680;2024-01-25T12:31:03;11.40;;;4.67;;
297;SDS011;133;49.626;9.680;2024-01-25T12:33:30;13.37;;;5.07;;
297;SDS011;133;49.626;9.680;2024-01-25T12:35:56;20.07;;;5.20;;
297;SDS011;133;49.626;9.680;2024-01-25T12:38:23;14.63;;;4.10;;
297;SDS011;133;49.626;9.680;2024-01-25T12:40:50;11.83;;;4.90;;
297;SDS011;133;49.626;9.680;2024-01-25T12:43:16;15.27;;;4.70;;
297;SDS011;133;49.626;9.680;2024-01-25T12:45:42;17.03;;;4.80;;
297;SDS011;133;49.626;9.680;2024-01-25T12:48:08;14.10;;;3.87;;
297;SDS011;133;49.626;9.680;2024-01-25T12:50:34;18.47;;;5.70;;
297;SDS011;133;49.626;9.680;2024-01-25T12:53:01;13.37;;;4.67;;
297;SDS011;133;49.626;9.680;2024-01-25T12:55:28;21.67;;;5.67;;
297;SDS011;133;49.626;9.680;2024-01-25T12:57:57;14.37;;;4.60;;
297;SDS011;133;49.626;9.680;2024-01-25T13:00:24;25.83;;;5.23;;
297;SDS011;133;49.626;9.680;2024-01-25T13:02:50;14.83;;;4.70;;
297;SDS011;133;49.626;9.680;2024-01-25T13:05:16;17.27;;;5.17;;
297;SDS011;133;49.626;9.680;2024-01-25T13:07:42;16.90;;;5.40;;
297;SDS011;133;49.626;9.680;2024-01-25T13:10:08;16.07;;;4.87;;
297;SDS011;133;49.626;9.680;2024-01-25T13:12:36;15.23;;;4.53;;
297;SDS011;133;49.626;9.680;2024-01-25T13:15:05;21.83;;;5.10;;
297;SDS011;133;49.626;9.680;2024-01-25T13:17:31;18.20;;;5.20;;
297;SDS011;133;49.626;9.680;2024-01-25T13:19:57;10.47;;;4.50;;
297;SDS011;133;49.626;9.680;2024-01-25T13:22:23;14.40;;;4.80;;
297;SDS011;133;49.626;9.680;2024-01-25T13:24:49;17.27;;;4.97;;
297;SDS011;133;49.626;9.680;2024-01-25T13:27:15;17.70;;;5.20;;
297;SDS011;133;49.626;9.680;2024-01-25T13:29:41;14.10;;;4.60;;
297;SDS011;133;49.626;9.680;2024-01-25T13:32:07;13.77;;;5.40;;
297;SDS011;133;49.626;9.680;2024-01-25T13:34:33;12.87;;;5.00;;
297;SDS011;133;49.626;9.680;2024-01-25T13:36:59;20.77;;;5.50;;
297;SDS011;133;49.626;9.680;2024-01-25T13:39:25;13.03;;;4.70;;
297;SDS011;133;49.626;9.680;2024-01-25T13:41:51;10.70;;;4.80;;
297;SDS011;133;49.626;9.680;2024-01-25T13:44:16;15.60;;;5.40;;
297;SDS011;133;49.626;9.680;2024-01-25T13:46:42;15.90;;;4.57;;
297;SDS011;133;49.626;9.680;2024-01-25T13:49:08;13.23;;;4.30;;
297;SDS011;133;49.626;9.680;2024-01-25T13:51:34;16.23;;;5.07;;
297;SDS011;133;49.626;9.680;2024-01-25T13:54:00;13.33;;;4.70;;
297;SDS011;133;49.626;9.680;2024-01-25T13:56:26;17.77;;;5.07;;
297;SDS011;133;49.626;9.680;2024-01-25T13:58:52;16.03;;;4.73;;
297;SDS011;133;49.626;9.680;2024-01-25T14:01:17;15.53;;;4.90;;
297;SDS011;133;49.626;9.680;2024-01-25T14:03:43;21.00;;;5.20;;
297;SDS011;133;49.626;9.680;2024-01-25T14:06:08;18.90;;;5.60;;
297;SDS011;133;49.626;9.680;2024-01-25T14:08:37;18.57;;;4.90;;
297;SDS011;133;49.626;9.680;2024-01-25T14:11:03;11.90;;;4.40;;
297;SDS011;133;49.626;9.680;2024-01-25T14:13:30;15.30;;;4.67;;
297;SDS011;133;49.626;9.680;2024-01-25T14:15:56;15.73;;;4.60;;
297;SDS011;133;49.626;9.680;2024-01-25T14:18:23;13.93;;;4.53;;
297;SDS011;133;49.626;9.680;2024-01-25T14:20:49;12.97;;;4.77;;
297;SDS011;133;49.626;9.680;2024-01-25T14:23:15;13.40;;;4.33;;
297;SDS011;133;49.626;9.680;2024-01-25T14:25:41;12.33;;;4.80;;
297;SDS011;133;49.626;9.680;2024-01-25T14:28:06;14.97;;;4.70;;
297;SDS011;133;49.626;9.680;2024-01-25T14:30:32;15.13;;;5.80;;
297;SDS011;133;49.626;9.680;2024-01-25T14:32:58;36.37;;;16.23;;
297;SDS011;133;49.626;9.680;2024-01-25T14:35:23;26.87;;;11.53;;
297;SDS011;133;49.626;9.680;2024-01-25T14:37:54;31.47;;;15.57;;
297;SDS011;133;49.626;9.680;2024-01-25T14:40:20;30.80;;;16.80;;
297;SDS011;133;49.626;9.680;2024-01-25T14:42:46;18.13;;;8.90;;
297;SDS011;133;49.626;9.680;2024-01-25T14:45:12;19.37;;;6.63;;
297;SDS011;133;49.626;9.680;2024-01-25T14:47:38;15.83;;;6.00;;
297;SDS011;133;49.626;9.680;2024-01-25T14:50:04;22.83;;;6.50;;
297;SDS011;133;49.626;9.680;2024-01-25T14:52:30;18.00;;;6.40;;
297;SDS011;133;49.626;9.680;2024-01-25T14:54:59;17.50;;;6.77;;
297;SDS011;133;49.626;9.680;2024-01-25T14:57:26;11.70;;;6.53;;
297;SDS011;133;49.626;9.680;2024-01-25T14:59:52;17.03;;;6.00;;
297;SDS011;133;49.626;9.680;2024-01-25T15:02:17;16.53;;;6.40;;
297;SDS011;133;49.626;9.680;2024-01-25T15:04:43;13.43;;;7.10;;
297;SDS011;133;49.626;9.680;2024-01-25T15:07:09;18.90;;;6.30;;
297;SDS011;133;49.626;9.680;2024-01-25T15:09:35;11.90;;;6.20;;
297;SDS011;133;49.626;9.680;2024-01-25T15:12:01;26.53;;;10.97;;
297;SDS011;133;49.626;9.680;2024-01-25T15:14:26;28.03;;;11.63;;
297;SDS011;133;49.626;9.680;2024-01-25T15:16:52;21.63;;;11.37;;
297;SDS011;133;49.626;9.680;2024-01-25T15:19:18;14.27;;;8.90;;
297;SDS011;133;49.626;9.680;2024-01-25T15:21:45;20.60;;;10.63;;
297;SDS011;133;49.626;9.680;2024-01-25T15:24:10;22.20;;;12.30;;
297;SDS011;133;49.626;9.680;2024-01-25T15:26:42;20.43;;;9.63;;